sensor_id;sensor_type;location;lat;lon;timestamp;P1;durP1;ratioP1;P2;durP2;ratioP2
32319;SDS011;19080;51.750;5.888;2024-03-23T00:55:35;7.15;;;2.85;;
32319;SDS011;19080;51.750;5.888;2024-03-23T00:58:01;9.32;;;2.90;;
32319;SDS011;19080;51.750;5.888;2024-03-23T01:00:26;5.47;;;2.60;;
32319;SDS011;19080;51.750;5.888;2024-03-23T01:02:52;5.82;;;2.50;;
32319;SDS011;19080;51.750;5.888;2024-03-23T01:05:18;6.45;;;2.80;;
32319;SDS011;19080;51.750;5.888;2024-03-23T01:07:44;7.07;;;2.75;;
32319;SDS011;19080;51.750;5.888;2024-03-23T01:10:09;4.88;;;2.40;;
32319;SDS011;19080;51.750;5.888;2024-03-23T01:12:35;8.55;;;3.05;;
32319;SDS011;19080;51.750;5.888;2024-03-23T01:15:01;5.25;;;2.58;;
32319;SDS011;19080;51.750;5.888;2024-03-23T01:17:27;5.30;;;3.00;;
32319;SDS011;19080;51.750;5.888;2024-03-23T01:19:52;7.25;;;3.05;;
32319;SDS011;19080;51.750;5.888;2024-03-23T01:22:18;5.72;;;2.47;;
32319;SDS011;19080;51.750;5.888;2024-03-23T01:24:44;8.18;;;2.97;;
32319;SDS011;19080;51.750;5.888;2024-03-23T01:27:09;10.13;;;3.53;;
32319;SDS011;19080;51.750;5.888;2024-03-23T01:29:35;5.82;;;2.63;;
32319;SDS011;19080;51.750;5.888;2024-03-23T01:32:01;5.75;;;2.85;;
32319;SDS011;19080;51.750;5.888;2024-03-23T01:34:26;13.57;;;3.10;;
32319;SDS011;19080;51.750;5.888;2024-03-23T01:36:53;7.60;;;3.03;;
32319;SDS011;19080;51.750;5.888;2024-03-23T01:39:19;7.43;;;3.15;;
32319;SDS011;19080;51.750;5.888;2024-03-23T01:41:44;10.90;;;2.90;;
32319;SDS011;19080;51.750;5.888;2024-03-23T01:44:10;9.75;;;3.20;;
32319;SDS011;19080;51.750;5.888;2024-03-23T01:46:36;8.82;;;3.30;;
32319;SDS011;19080;51.750;5.888;2024-03-23T01:49:03;8.95;;;2.67;;
32319;SDS011;19080;51.750;5.888;2024-03-23T01:51:30;9.80;;;3.25;;
32319;SDS011;19080;51.750;5.888;2024-03-23T01:53:56;9.52;;;3.17;;
32319;SDS011;19080;51.750;5.888;2024-03-23T01:56:22;7.63;;;3.60;;
32319;SDS011;19080;51.750;5.888;2024-03-23T01:58:47;8.38;;;3.20;;
32319;SDS011;19080;51.750;5.888;2024-03-23T02:01:13;9.52;;;3.47;;
32319;SDS011;19080;51.750;5.888;2024-03-23T02:03:39;8.90;;;3.00;;
32319;SDS011;19080;51.750;5.888;2024-03-23T02:06:05;8.80;;;3.58;;
32319;SDS011;19080;51.750;5.888;2024-03-23T02:08:32;9.02;;;3.78;;
32319;SDS011;19080;51.750;5.888;2024-03-23T02:10:58;6.18;;;3.20;;
32319;SDS011;19080;51.750;5.888;2024-03-23T02:13:24;8.77;;;3.50;;
32319;SDS011;19080;51.750;5.888;2024-03-23T02:15:50;8.20;;;3.50;;
32319;SDS011;19080;51.750;5.888;2024-03-23T02:18:16;9.77;;;3.72;;
32319;SDS011;19080;51.750;5.888;2024-03-23T02:20:41;8.27;;;3.45;;
32319;SDS011;19080;51.750;5.888;2024-03-23T02:23:16;10.95;;;3.38;;
32319;SDS011;19080;51.750;5.888;2024-03-23T02:25:45;12.05;;;4.15;;
32319;SDS011;19080;51.750;5.888;2024-03-23T02:28:11;10.57;;;4.18;;
32319;SDS011;19080;51.750;5.888;2024-03-23T02:30:37;10.45;;;4.07;;
32319;SDS011;19080;51.750;5.888;2024-03-23T02:33:03;11.63;;;4.43;;
32319;SDS011;19080;51.750;5.888;2024-03-23T02:35:29;8.63;;;4.38;;
32319;SDS011;19080;51.750;5.888;2024-03-23T02:37:55;9.20;;;4.05;;
32319;SDS011;19080;51.750;5.888;2024-03-23T02:40:22;12.27;;;4.47;;
32319;SDS011;19080;51.750;5.888;2024-03-23T02:42:48;10.30;;;4.13;;
32319;SDS011;19080;51.750;5.888;2024-03-23T02:45:14;11.10;;;4.00;;
32319;SDS011;19080;51.750;5.888;2024-03-23T02:47:40;15.35;;;5.43;;
32319;SDS011;19080;51.750;5.888;2024-03-23T02:50:05;10.02;;;4.55;;
32319;SDS011;19080;51.750;5.888;2024-03-23T02:52:31;11.60;;;4.68;;
32319;SDS011;19080;51.750;5.888;2024-03-23T02:54:57;9.20;;;4.32;;
32319;SDS011;19080;51.750;5.888;2024-03-23T02:57:23;11.52;;;4.75;;
32319;SDS011;19080;51.750;5.888;2024-03-23T02:59:49;9.00;;;4.32;;
32319;SDS011;19080;51.750;5.888;2024-03-23T03:02:15;12.10;;;4.82;;
32319;SDS011;19080;51.750;5.888;2024-03-23T03:04:41;14.70;;;5.70;;
32319;SDS011;19080;51.750;5.888;2024-03-23T03:07:07;13.00;;;4.22;;
32319;SDS011;19080;51.750;5.888;2024-03-23T03:09:33;10.80;;;4.75;;
32319;SDS011;19080;51.750;5.888;2024-03-23T03:12:01;14.32;;;5.10;;
32319;SDS011;19080;51.750;5.888;2024-03-23T03:14:27;15.70;;;5.07;;
32319;SDS011;19080;51.750;5.888;2024-03-23T03:16:53;14.05;;;6.00;;
32319;SDS011;19080;51.750;5.888;2024-03-23T03:19:19;12.02;;;5.13;;
32319;SDS011;19080;51.750;5.888;2024-03-23T03:21:45;14.18;;;5.50;;
32319;SDS011;19080;51.750;5.888;2024-03-23T03:24:10;15.60;;;5.10;;
32319;SDS011;19080;51.750;5.888;2024-03-23T03:26:36;12.93;;;5.45;;
32319;SDS011;19080;51.750;5.888;2024-03-23T03:29:02;14.77;;;5.50;;
32319;SDS011;19080;51.750;5.888;2024-03-23T03:31:28;14.07;;;4.80;;
32319;SDS011;19080;51.750;5.888;2024-03-23T03:33:54;12.50;;;5.25;;
32319;SDS011;19080;51.750;5.888;2024-03-23T03:36:19;14.52;;;5.65;;
32319;SDS011;19080;51.750;5.888;2024-03-23T03:38:46;13.23;;;5.82;;
32319;SDS011;19080;51.750;5.888;2024-03-23T03:41:11;20.98;;;6.35;;
32319;SDS011;19080;51.750;5.888;2024-03-23T03:43:37;17.63;;;5.80;;
32319;SDS011;19080;51.750;5.888;2024-03-23T03:46:03;16.98;;;5.60;;
32319;SDS011;19080;51.750;5.888;2024-03-23T03:48:29;15.50;;;6.35;;
32319;SDS011;19080;51.750;5.888;2024-03-23T03:50:55;13.30;;;5.53;;
32319;SDS011;19080;51.750;5.888;2024-03-23T03:53:21;11.55;;;5.20;;
32319;SDS011;19080;51.750;5.888;2024-03-23T03:55:47;16.10;;;5.45;;
32319;SDS011;19080;51.750;5.888;2024-03-23T03:58:12;17.60;;;6.18;;
32319;SDS011;19080;51.750;5.888;2024-03-23T04:00:38;19.42;;;6.10;;
32319;SDS011;19080;51.750;5.888;2024-03-23T04:03:04;21.90;;;6.78;;
32319;SDS011;19080;51.750;5.888;2024-03-23T04:05:30;12.02;;;5.05;;
32319;SDS011;19080;51.750;5.888;2024-03-23T04:07:56;13.82;;;6.00;;
32319;SDS011;19080;51.750;5.888;2024-03-23T04:10:21;15.82;;;6.35;;
32319;SDS011;19080;51.750;5.888;2024-03-23T04:12:47;15.55;;;5.85;;
32319;SDS011;19080;51.750;5.888;2024-03-23T04:15:13;21.48;;;7.00;;
32319;SDS011;19080;51.750;5.888;2024-03-23T04:17:39;19.33;;;6.53;;
32319;SDS011;19080;51.750;5.888;2024-03-23T04:20:08;16.35;;;5.53;;
32319;SDS011;19080;51.750;5.888;2024-03-23T04:22:37;15.80;;;7.38;;
32319;SDS011;19080;51.750;5.888;2024-03-23T04:25:02;18.00;;;7.40;;
32319;SDS011;19080;51.750;5.888;2024-03-23T04:27:39;16.17;;;6.22;;
32319;SDS011;19080;51.750;5.888;2024-03-23T04:30:06;17.42;;;7.05;;
32319;SDS011;19080;51.750;5.888;2024-03-23T04:32:36;16.60;;;7.22;;
32319;SDS011;19080;51.750;5.888;2024-03-23T04:35:05;20.15;;;6.13;;
32319;SDS011;19080;51.750;5.888;2024-03-23T04:37:34;17.80;;;6.55;;
32319;SDS011;19080;51.750;5.888;2024-03-23T04:40:01;14.07;;;5.97;;
32319;SDS011;19080;51.750;5.888;2024-03-23T04:42:27;14.02;;;6.22;;
32319;SDS011;19080;51.750;5.888;2024-03-23T04:44:53;23.20;;;6.82;;
32319;SDS011;19080;51.750;5.888;2024-03-23T04:47:19;17.40;;;6.82;;
32319;SDS011;19080;51.750;5.888;2024-03-23T04:49:45;20.80;;;6.68;;
32319;SDS011;19080;51.750;5.888;2024-03-23T04:52:10;15.63;;;7.18;;
32319;SDS011;19080;51.750;5.888;2024-03-23T04:54:36;19.85;;;7.50;;
32319;SDS011;19080;51.750;5.888;2024-03-23T04:57:02;17.05;;;6.93;;
32319;SDS011;19080;51.750;5.888;2024-03-23T04:59:28;18.55;;;6.50;;
32319;SDS011;19080;51.750;5.888;2024-03-23T05:01:53;18.60;;;5.45;;
32319;SDS011;19080;51.750;5.888;2024-03-23T05:04:19;16.65;;;5.32;;
32319;SDS011;19080;51.750;5.888;2024-03-23T05:06:45;17.40;;;6.45;;
32319;SDS011;19080;51.750;5.888;2024-03-23T05:09:10;14.10;;;5.18;;
32319;SDS011;19080;51.750;5.888;2024-03-23T05:11:37;19.92;;;5.20;;
32319;SDS011;19080;51.750;5.888;2024-03-23T05:14:04;16.05;;;6.15;;
32319;SDS011;19080;51.750;5.888;2024-03-23T05:16:30;15.43;;;5.28;;
32319;SDS011;19080;51.750;5.888;2024-03-23T05:18:55;19.25;;;5.15;;
32319;SDS011;19080;51.750;5.888;2024-03-23T05:21:21;20.58;;;6.22;;
32319;SDS011;19080;51.750;5.888;2024-03-23T05:23:47;15.85;;;5.32;;
32319;SDS011;19080;51.750;5.888;2024-03-23T05:26:13;15.05;;;5.03;;
32319;SDS011;19080;51.750;5.888;2024-03-23T05:28:39;20.40;;;4.63;;
32319;SDS011;19080;51.750;5.888;2024-03-23T05:31:05;16.67;;;4.45;;
32319;SDS011;19080;51.750;5.888;2024-03-23T05:33:31;15.07;;;5.15;;
32319;SDS011;19080;51.750;5.888;2024-03-23T05:35:57;19.77;;;4.97;;
32319;SDS011;19080;51.750;5.888;2024-03-23T05:38:24;20.73;;;4.43;;
32319;SDS011;19080;51.750;5.888;2024-03-23T05:40:59;17.83;;;5.20;;
32319;SDS011;19080;51.750;5.888;2024-03-23T05:43:26;15.75;;;4.95;;
32319;SDS011;19080;51.750;5.888;2024-03-23T05:45:59;15.75;;;4.90;;
32319;SDS011;19080;51.750;5.888;2024-03-23T05:48:26;20.75;;;5.55;;
32319;SDS011;19080;51.750;5.888;2024-03-23T05:50:52;14.40;;;3.78;;
32319;SDS011;19080;51.750;5.888;2024-03-23T05:53:17;15.80;;;5.05;;
32319;SDS011;19080;51.750;5.888;2024-03-23T05:55:46;19.30;;;4.95;;
32319;SDS011;19080;51.750;5.888;2024-03-23T05:58:14;14.55;;;4.50;;
32319;SDS011;19080;51.750;5.888;2024-03-23T06:00:41;18.55;;;5.00;;
32319;SDS011;19080;51.750;5.888;2024-03-23T06:03:08;13.98;;;4.75;;
32319;SDS011;19080;51.750;5.888;2024-03-23T06:05:34;14.93;;;4.38;;
32319;SDS011;19080;51.750;5.888;2024-03-23T06:08:00;19.17;;;4.85;;
32319;SDS011;19080;51.750;5.888;2024-03-23T06:10:25;20.08;;;5.25;;
32319;SDS011;19080;51.750;5.888;2024-03-23T06:12:51;15.80;;;5.45;;
32319;SDS011;19080;51.750;5.888;2024-03-23T06:15:20;12.55;;;4.70;;
32319;SDS011;19080;51.750;5.888;2024-03-23T06:17:48;16.52;;;5.07;;
32319;SDS011;19080;51.750;5.888;2024-03-23T06:20:14;11.77;;;4.30;;
32319;SDS011;19080;51.750;5.888;2024-03-23T06:22:40;17.25;;;4.13;;
32319;SDS011;19080;51.750;5.888;2024-03-23T06:25:06;12.38;;;4.13;;
32319;SDS011;19080;51.750;5.888;2024-03-23T06:27:32;15.60;;;4.38;;
32319;SDS011;19080;51.750;5.888;2024-03-23T06:29:58;16.48;;;4.93;;
32319;SDS011;19080;51.750;5.888;2024-03-23T06:32:25;12.20;;;4.30;;
32319;SDS011;19080;51.750;5.888;2024-03-23T06:34:50;17.58;;;5.18;;
32319;SDS011;19080;51.750;5.888;2024-03-23T06:37:16;16.38;;;4.60;;
32319;SDS011;19080;51.750;5.888;2024-03-23T06:39:42;15.30;;;4.15;;
32319;SDS011;19080;51.750;5.888;2024-03-23T06:42:07;15.05;;;4.75;;
32319;SDS011;19080;51.750;5.888;2024-03-23T06:44:33;15.02;;;4.53;;
32319;SDS011;19080;51.750;5.888;2024-03-23T06:46:59;15.23;;;5.40;;
32319;SDS011;19080;51.750;5.888;2024-03-23T06:49:25;14.68;;;4.10;;
32319;SDS011;19080;51.750;5.888;2024-03-23T06:51:51;15.55;;;4.00;;
32319;SDS011;19080;51.750;5.888;2024-03-23T06:54:17;14.13;;;3.78;;
32319;SDS011;19080;51.750;5.888;2024-03-23T06:56:44;13.57;;;4.20;;
32319;SDS011;19080;51.750;5.888;2024-03-23T06:59:10;16.70;;;4.15;;
32319;SDS011;19080;51.750;5.888;2024-03-23T07:01:36;11.70;;;3.92;;
32319;SDS011;19080;51.750;5.888;2024-03-23T07:04:01;16.30;;;3.88;;
32319;SDS011;19080;51.750;5.888;2024-03-23T07:06:29;14.07;;;3.92;;
32319;SDS011;19080;51.750;5.888;2024-03-23T07:08:55;10.43;;;3.60;;
32319;SDS011;19080;51.750;5.888;2024-03-23T07:11:22;14.23;;;3.53;;
32319;SDS011;19080;51.750;5.888;2024-03-23T07:13:51;13.90;;;3.92;;
32319;SDS011;19080;51.750;5.888;2024-03-23T07:16:20;12.50;;;3.60;;
32319;SDS011;19080;51.750;5.888;2024-03-23T07:18:46;13.60;;;3.60;;
32319;SDS011;19080;51.750;5.888;2024-03-23T07:21:11;16.58;;;4.00;;
32319;SDS011;19080;51.750;5.888;2024-03-23T07:23:37;11.93;;;3.13;;
32319;SDS011;19080;51.750;5.888;2024-03-23T07:26:03;10.35;;;3.53;;
32319;SDS011;19080;51.750;5.888;2024-03-23T07:28:33;12.23;;;3.63;;
32319;SDS011;19080;51.750;5.888;2024-03-23T07:31:04;20.17;;;4.45;;
32319;SDS011;19080;51.750;5.888;2024-03-23T07:33:37;18.98;;;4.15;;
32319;SDS011;19080;51.750;5.888;2024-03-23T07:36:08;10.25;;;3.72;;
32319;SDS011;19080;51.750;5.888;2024-03-23T07:38:33;14.68;;;4.38;;
32319;SDS011;19080;51.750;5.888;2024-03-23T07:41:18;14.13;;;3.50;;
32319;SDS011;19080;51.750;5.888;2024-03-23T07:43:45;9.40;;;3.78;;
32319;SDS011;19080;51.750;5.888;2024-03-23T07:46:12;13.35;;;4.32;;
32319;SDS011;19080;51.750;5.888;2024-03-23T07:48:39;14.07;;;3.28;;
32319;SDS011;19080;51.750;5.888;2024-03-23T07:51:15;11.88;;;3.70;;
32319;SDS011;19080;51.750;5.888;2024-03-23T07:53:43;13.60;;;3.03;;
32319;SDS011;19080;51.750;5.888;2024-03-23T07:56:10;12.32;;;3.20;;
32319;SDS011;19080;51.750;5.888;2024-03-23T07:58:36;10.23;;;3.25;;
32319;SDS011;19080;51.750;5.888;2024-03-23T08:01:03;10.13;;;3.13;;
32319;SDS011;19080;51.750;5.888;2024-03-23T08:03:30;13.18;;;3.25;;
32319;SDS011;19080;51.750;5.888;2024-03-23T08:05:56;11.90;;;3.38;;
32319;SDS011;19080;51.750;5.888;2024-03-23T08:08:22;10.02;;;2.60;;
32319;SDS011;19080;51.750;5.888;2024-03-23T08:10:51;11.52;;;3.28;;
32319;SDS011;19080;51.750;5.888;2024-03-23T08:13:17;6.72;;;2.55;;
32319;SDS011;19080;51.750;5.888;2024-03-23T08:15:43;9.57;;;2.58;;
32319;SDS011;19080;51.750;5.888;2024-03-23T08:18:10;8.57;;;2.55;;
32319;SDS011;19080;51.750;5.888;2024-03-23T08:20:36;8.30;;;2.65;;
32319;SDS011;19080;51.750;5.888;2024-03-23T08:23:02;8.13;;;2.85;;
32319;SDS011;19080;51.750;5.888;2024-03-23T08:25:30;8.80;;;2.50;;
32319;SDS011;19080;51.750;5.888;2024-03-23T08:27:57;13.60;;;3.20;;
32319;SDS011;19080;51.750;5.888;2024-03-23T08:30:23;10.27;;;2.22;;
32319;SDS011;19080;51.750;5.888;2024-03-23T08:32:49;10.07;;;2.83;;
32319;SDS011;19080;51.750;5.888;2024-03-23T08:35:14;10.40;;;2.78;;
32319;SDS011;19080;51.750;5.888;2024-03-23T08:37:40;13.40;;;2.55;;
32319;SDS011;19080;51.750;5.888;2024-03-23T08:40:06;9.57;;;2.30;;
32319;SDS011;19080;51.750;5.888;2024-03-23T08:42:34;14.35;;;2.97;;
32319;SDS011;19080;51.750;5.888;2024-03-23T08:45:00;8.48;;;2.63;;
32319;SDS011;19080;51.750;5.888;2024-03-23T08:47:26;11.18;;;2.60;;
32319;SDS011;19080;51.750;5.888;2024-03-23T08:49:52;9.30;;;2.45;;
32319;SDS011;19080;51.750;5.888;2024-03-23T08:52:18;11.20;;;2.83;;
32319;SDS011;19080;51.750;5.888;2024-03-23T08:54:43;15.13;;;3.10;;
32319;SDS011;19080;51.750;5.888;2024-03-23T08:57:09;10.57;;;2.80;;
32319;SDS011;19080;51.750;5.888;2024-03-23T08:59:35;13.70;;;2.42;;
32319;SDS011;19080;51.750;5.888;2024-03-23T09:02:00;8.75;;;1.92;;
32319;SDS011;19080;51.750;5.888;2024-03-23T09:04:26;13.93;;;2.22;;
32319;SDS011;19080;51.750;5.888;2024-03-23T09:06:52;6.45;;;1.88;;
32319;SDS011;19080;51.750;5.888;2024-03-23T09:09:17;9.05;;;2.53;;
32319;SDS011;19080;51.750;5.888;2024-03-23T09:11:45;9.57;;;2.35;;
32319;SDS011;19080;51.750;5.888;2024-03-23T09:14:11;6.32;;;1.75;;
32319;SDS011;19080;51.750;5.888;2024-03-23T09:16:36;11.98;;;3.08;;
32319;SDS011;19080;51.750;5.888;2024-03-23T09:19:02;10.10;;;2.22;;
32319;SDS011;19080;51.750;5.888;2024-03-23T09:21:28;8.20;;;2.30;;
32319;SDS011;19080;51.750;5.888;2024-03-23T09:23:54;9.15;;;1.95;;
32319;SDS011;19080;51.750;5.888;2024-03-23T09:26:20;9.48;;;2.28;;
32319;SDS011;19080;51.750;5.888;2024-03-23T09:28:48;6.93;;;2.17;;
32319;SDS011;19080;51.750;5.888;2024-03-23T09:31:14;11.48;;;2.25;;
32319;SDS011;19080;51.750;5.888;2024-03-23T09:33:40;10.82;;;2.55;;
32319;SDS011;19080;51.750;5.888;2024-03-23T09:36:07;4.95;;;1.63;;
32319;SDS011;19080;51.750;5.888;2024-03-23T09:38:33;5.20;;;1.40;;
32319;SDS011;19080;51.750;5.888;2024-03-23T09:40:59;3.08;;;1.13;;
32319;SDS011;19080;51.750;5.888;2024-03-23T09:43:25;12.02;;;1.75;;
32319;SDS011;19080;51.750;5.888;2024-03-23T09:45:51;8.60;;;1.73;;
32319;SDS011;19080;51.750;5.888;2024-03-23T09:48:17;6.47;;;1.52;;
32319;SDS011;19080;51.750;5.888;2024-03-23T09:50:44;3.38;;;1.40;;
32319;SDS011;19080;51.750;5.888;2024-03-23T09:53:12;5.03;;;1.67;;
32319;SDS011;19080;51.750;5.888;2024-03-23T09:55:39;7.40;;;2.03;;
32319;SDS011;19080;51.750;5.888;2024-03-23T09:58:06;6.93;;;1.95;;
32319;SDS011;19080;51.750;5.888;2024-03-23T10:00:32;6.15;;;1.83;;
32319;SDS011;19080;51.750;5.888;2024-03-23T10:02:59;8.13;;;1.83;;
32319;SDS011;19080;51.750;5.888;2024-03-23T10:05:27;13.48;;;2.67;;
32319;SDS011;19080;51.750;5.888;2024-03-23T10:07:54;5.88;;;1.80;;
32319;SDS011;19080;51.750;5.888;2024-03-23T10:10:19;8.57;;;1.77;;
32319;SDS011;19080;51.750;5.888;2024-03-23T10:12:47;5.75;;;1.60;;
32319;SDS011;19080;51.750;5.888;2024-03-23T10:15:23;7.20;;;2.00;;
32319;SDS011;19080;51.750;5.888;2024-03-23T10:17:50;10.00;;;1.77;;
32319;SDS011;19080;51.750;5.888;2024-03-23T10:20:22;7.25;;;1.80;;
32319;SDS011;19080;51.750;5.888;2024-03-23T10:22:49;9.82;;;1.98;;
32319;SDS011;19080;51.750;5.888;2024-03-23T10:25:17;10.35;;;2.17;;
32319;SDS011;19080;51.750;5.888;2024-03-23T10:27:43;10.20;;;1.95;;
32319;SDS011;19080;51.750;5.888;2024-03-23T10:32:36;5.93;;;1.67;;
32319;SDS011;19080;51.750;5.888;2024-03-23T10:35:16;10.15;;;1.85;;
32319;SDS011;19080;51.750;5.888;2024-03-23T10:37:47;8.35;;;1.95;;
32319;SDS011;19080;51.750;5.888;2024-03-23T10:40:15;9.15;;;1.40;;
32319;SDS011;19080;51.750;5.888;2024-03-23T10:42:41;5.93;;;1.30;;
32319;SDS011;19080;51.750;5.888;2024-03-23T10:45:07;9.88;;;1.80;;
32319;SDS011;19080;51.750;5.888;2024-03-23T10:47:34;6.28;;;1.70;;
32319;SDS011;19080;51.750;5.888;2024-03-23T10:50:01;7.47;;;1.85;;
32319;SDS011;19080;51.750;5.888;2024-03-23T10:52:28;5.88;;;1.60;;
32319;SDS011;19080;51.750;5.888;2024-03-23T10:54:54;6.85;;;1.75;;
32319;SDS011;19080;51.750;5.888;2024-03-23T10:57:41;10.63;;;1.67;;
32319;SDS011;19080;51.750;5.888;2024-03-23T11:00:11;8.07;;;2.20;;
32319;SDS011;19080;51.750;5.888;2024-03-23T11:02:37;9.13;;;1.77;;
32319;SDS011;19080;51.750;5.888;2024-03-23T11:07:51;6.35;;;1.20;;
32319;SDS011;19080;51.750;5.888;2024-03-23T11:10:36;7.38;;;2.35;;
32319;SDS011;19080;51.750;5.888;2024-03-23T11:13:21;14.23;;;2.75;;
32319;SDS011;19080;51.750;5.888;2024-03-23T11:15:47;7.97;;;1.95;;
32319;SDS011;19080;51.750;5.888;2024-03-23T11:18:13;11.95;;;2.15;;
32319;SDS011;19080;51.750;5.888;2024-03-23T11:20:46;16.65;;;2.05;;
32319;SDS011;19080;51.750;5.888;2024-03-23T11:23:27;7.63;;;2.38;;
32319;SDS011;19080;51.750;5.888;2024-03-23T11:25:54;4.70;;;1.40;;
32319;SDS011;19080;51.750;5.888;2024-03-23T11:28:19;6.95;;;1.85;;
32319;SDS011;19080;51.750;5.888;2024-03-23T11:37:06;10.15;;;1.90;;
32319;SDS011;19080;51.750;5.888;2024-03-23T11:39:32;12.70;;;2.20;;
32319;SDS011;19080;51.750;5.888;2024-03-23T11:41:58;6.82;;;1.48;;
32319;SDS011;19080;51.750;5.888;2024-03-23T11:44:27;8.82;;;1.50;;
32319;SDS011;19080;51.750;5.888;2024-03-23T11:46:53;13.25;;;2.13;;
32319;SDS011;19080;51.750;5.888;2024-03-23T11:51:53;11.18;;;1.77;;
32319;SDS011;19080;51.750;5.888;2024-03-23T11:54:20;10.00;;;1.63;;
32319;SDS011;19080;51.750;5.888;2024-03-23T11:57:02;10.30;;;1.70;;
32319;SDS011;19080;51.750;5.888;2024-03-23T11:59:33;6.97;;;1.67;;
32319;SDS011;19080;51.750;5.888;2024-03-23T12:02:10;8.93;;;1.75;;
32319;SDS011;19080;51.750;5.888;2024-03-23T12:04:37;11.55;;;1.70;;
32319;SDS011;19080;51.750;5.888;2024-03-23T12:07:13;2.03;;;0.52;;
32319;SDS011;19080;51.750;5.888;2024-03-23T12:09:46;3.20;;;0.50;;
32319;SDS011;19080;51.750;5.888;2024-03-23T12:12:18;6.35;;;1.02;;
32319;SDS011;19080;51.750;5.888;2024-03-23T12:14:45;4.22;;;1.27;;
32319;SDS011;19080;51.750;5.888;2024-03-23T12:17:26;4.10;;;0.85;;
32319;SDS011;19080;51.750;5.888;2024-03-23T12:19:52;3.50;;;0.90;;
32319;SDS011;19080;51.750;5.888;2024-03-23T12:22:21;6.82;;;0.90;;
32319;SDS011;19080;51.750;5.888;2024-03-23T12:24:47;5.05;;;1.90;;
32319;SDS011;19080;51.750;5.888;2024-03-23T12:27:13;6.72;;;1.17;;
32319;SDS011;19080;51.750;5.888;2024-03-23T12:29:40;7.57;;;1.63;;
32319;SDS011;19080;51.750;5.888;2024-03-23T12:32:11;7.20;;;1.42;;
32319;SDS011;19080;51.750;5.888;2024-03-23T12:34:38;7.75;;;1.70;;
32319;SDS011;19080;51.750;5.888;2024-03-23T12:37:04;6.07;;;1.52;;
32319;SDS011;19080;51.750;5.888;2024-03-23T12:39:31;9.20;;;2.08;;
32319;SDS011;19080;51.750;5.888;2024-03-23T12:41:57;6.60;;;1.73;;
32319;SDS011;19080;51.750;5.888;2024-03-23T12:44:23;11.45;;;1.85;;
32319;SDS011;19080;51.750;5.888;2024-03-23T12:46:49;7.38;;;1.90;;
32319;SDS011;19080;51.750;5.888;2024-03-23T12:49:15;5.07;;;1.48;;
32319;SDS011;19080;51.750;5.888;2024-03-23T12:51:46;9.68;;;1.65;;
32319;SDS011;19080;51.750;5.888;2024-03-23T12:54:19;9.38;;;1.92;;
32319;SDS011;19080;51.750;5.888;2024-03-23T12:56:46;7.68;;;1.42;;
32319;SDS011;19080;51.750;5.888;2024-03-23T12:59:12;8.80;;;1.88;;
32319;SDS011;19080;51.750;5.888;2024-03-23T13:01:38;8.82;;;1.55;;
32319;SDS011;19080;51.750;5.888;2024-03-23T13:04:04;6.35;;;1.60;;
32319;SDS011;19080;51.750;5.888;2024-03-23T13:06:30;10.90;;;2.28;;
32319;SDS011;19080;51.750;5.888;2024-03-23T13:09:03;6.97;;;1.65;;
32319;SDS011;19080;51.750;5.888;2024-03-23T13:11:30;7.30;;;2.03;;
32319;SDS011;19080;51.750;5.888;2024-03-23T13:13:56;5.00;;;1.50;;
32319;SDS011;19080;51.750;5.888;2024-03-23T13:16:22;7.00;;;1.65;;
32319;SDS011;19080;51.750;5.888;2024-03-23T13:18:48;5.47;;;1.10;;
32319;SDS011;19080;51.750;5.888;2024-03-23T13:21:13;5.90;;;1.67;;
32319;SDS011;19080;51.750;5.888;2024-03-23T13:23:40;5.65;;;1.40;;
32319;SDS011;19080;51.750;5.888;2024-03-23T13:26:07;8.52;;;1.55;;
32319;SDS011;19080;51.750;5.888;2024-03-23T13:28:33;5.43;;;1.85;;
32319;SDS011;19080;51.750;5.888;2024-03-23T13:31:00;6.28;;;1.38;;
32319;SDS011;19080;51.750;5.888;2024-03-23T13:33:29;10.38;;;1.98;;
32319;SDS011;19080;51.750;5.888;2024-03-23T13:35:57;8.15;;;1.70;;
32319;SDS011;19080;51.750;5.888;2024-03-23T13:38:23;6.25;;;1.50;;
32319;SDS011;19080;51.750;5.888;2024-03-23T13:40:53;7.55;;;1.48;;
32319;SDS011;19080;51.750;5.888;2024-03-23T13:43:20;5.35;;;1.08;;
32319;SDS011;19080;51.750;5.888;2024-03-23T13:45:46;7.55;;;1.13;;
32319;SDS011;19080;51.750;5.888;2024-03-23T13:48:14;7.82;;;1.00;;
32319;SDS011;19080;51.750;5.888;2024-03-23T13:50:41;7.15;;;1.35;;
32319;SDS011;19080;51.750;5.888;2024-03-23T13:53:07;7.50;;;1.80;;
32319;SDS011;19080;51.750;5.888;2024-03-23T13:55:34;4.55;;;1.55;;
32319;SDS011;19080;51.750;5.888;2024-03-23T13:57:59;4.50;;;1.20;;
32319;SDS011;19080;51.750;5.888;2024-03-23T14:00:25;6.70;;;1.88;;
32319;SDS011;19080;51.750;5.888;2024-03-23T14:02:51;5.75;;;1.48;;
32319;SDS011;19080;51.750;5.888;2024-03-23T14:05:17;6.03;;;1.58;;
32319;SDS011;19080;51.750;5.888;2024-03-23T14:07:42;6.47;;;1.30;;
32319;SDS011;19080;51.750;5.888;2024-03-23T14:10:08;9.05;;;1.75;;
32319;SDS011;19080;51.750;5.888;2024-03-23T14:12:36;5.28;;;1.27;;
32319;SDS011;19080;51.750;5.888;2024-03-23T14:15:07;3.50;;;1.38;;
32319;SDS011;19080;51.750;5.888;2024-03-23T14:17:33;5.68;;;1.58;;
32319;SDS011;19080;51.750;5.888;2024-03-23T14:19:59;5.00;;;1.30;;
32319;SDS011;19080;51.750;5.888;2024-03-23T14:22:31;4.85;;;1.38;;
32319;SDS011;19080;51.750;5.888;2024-03-23T14:24:57;8.45;;;1.45;;
32319;SDS011;19080;51.750;5.888;2024-03-23T14:27:24;8.32;;;1.63;;
32319;SDS011;19080;51.750;5.888;2024-03-23T14:29:50;6.53;;;1.70;;
32319;SDS011;19080;51.750;5.888;2024-03-23T14:32:16;8.27;;;1.60;;
32319;SDS011;19080;51.750;5.888;2024-03-23T14:34:41;6.80;;;1.58;;
32319;SDS011;19080;51.750;5.888;2024-03-23T14:37:07;4.88;;;1.50;;
32319;SDS011;19080;51.750;5.888;2024-03-23T14:39:33;7.90;;;1.58;;
32319;SDS011;19080;51.750;5.888;2024-03-23T14:42:04;8.18;;;1.70;;
32319;SDS011;19080;51.750;5.888;2024-03-23T14:44:32;5.00;;;1.60;;
32319;SDS011;19080;51.750;5.888;2024-03-23T14:46:57;6.20;;;1.83;;
32319;SDS011;19080;51.750;5.888;2024-03-23T14:49:23;9.43;;;2.40;;
32319;SDS011;19080;51.750;5.888;2024-03-23T14:51:49;8.05;;;1.52;;
32319;SDS011;19080;51.750;5.888;2024-03-23T14:54:15;9.45;;;1.65;;
32319;SDS011;19080;51.750;5.888;2024-03-23T14:56:41;9.52;;;1.85;;
32319;SDS011;19080;51.750;5.888;2024-03-23T14:59:07;7.35;;;1.80;;
32319;SDS011;19080;51.750;5.888;2024-03-23T15:01:33;7.97;;;2.88;;
32319;SDS011;19080;51.750;5.888;2024-03-23T15:03:59;8.90;;;1.70;;
32319;SDS011;19080;51.750;5.888;2024-03-23T15:06:25;7.18;;;2.13;;
32319;SDS011;19080;51.750;5.888;2024-03-23T15:08:51;6.88;;;1.80;;
32319;SDS011;19080;51.750;5.888;2024-03-23T15:11:17;5.70;;;1.60;;
32319;SDS011;19080;51.750;5.888;2024-03-23T15:15:40;7.05;;;1.65;;
32319;SDS011;19080;51.750;5.888;2024-03-23T15:18:10;9.07;;;1.77;;
32319;SDS011;19080;51.750;5.888;2024-03-23T15:20:38;7.82;;;2.35;;
32319;SDS011;19080;51.750;5.888;2024-03-23T15:23:04;11.75;;;2.08;;
32319;SDS011;19080;51.750;5.888;2024-03-23T15:25:30;9.70;;;1.90;;
32319;SDS011;19080;51.750;5.888;2024-03-23T15:27:57;6.88;;;1.58;;
32319;SDS011;19080;51.750;5.888;2024-03-23T15:30:24;10.98;;;1.98;;
32319;SDS011;19080;51.750;5.888;2024-03-23T15:32:50;5.18;;;0.88;;
32319;SDS011;19080;51.750;5.888;2024-03-23T15:35:16;4.65;;;1.02;;
32319;SDS011;19080;51.750;5.888;2024-03-23T15:37:42;3.90;;;0.98;;
32319;SDS011;19080;51.750;5.888;2024-03-23T15:40:08;3.75;;;1.67;;
32319;SDS011;19080;51.750;5.888;2024-03-23T15:42:35;5.03;;;1.30;;
32319;SDS011;19080;51.750;5.888;2024-03-23T15:45:01;3.35;;;1.27;;
32319;SDS011;19080;51.750;5.888;2024-03-23T15:47:29;4.97;;;1.10;;
32319;SDS011;19080;51.750;5.888;2024-03-23T15:49:54;3.13;;;0.90;;